createdAt,value
2016-04-05T00:00:00.246Z,980.37
2016-04-05T00:01:00.249Z,980.35
2016-04-05T00:02:00.251Z,980.37
2016-04-05T00:03:00.238Z,980.39
2016-04-05T00:04:00.257Z,980.38
2016-04-05T00:05:00.244Z,980.34
2016-04-05T00:06:00.246Z,980.33
2016-04-05T00:07:00.250Z,980.34
2016-04-05T00:08:00.252Z,980.32
2016-04-05T00:09:00.255Z,980.3
2016-04-05T00:10:00.257Z,980.34
2016-04-05T00:11:00.260Z,980.27
2016-04-05T00:12:00.263Z,980.26
2016-04-05T00:13:00.265Z,980.22
2016-04-05T00:14:00.252Z,980.23
2016-04-05T00:15:00.254Z,980.21
2016-04-05T00:16:00.257Z,980.23
2016-04-05T00:17:00.260Z,980.2
2016-04-05T00:18:00.262Z,980.19
2016-04-05T00:19:00.266Z,980.17
2016-04-05T00:20:00.268Z,980.16
2016-04-05T00:21:00.256Z,980.15
2016-04-05T00:22:00.274Z,980.15
2016-04-05T00:23:00.261Z,980.12
2016-04-05T00:24:00.264Z,980.14
2016-04-05T00:25:00.266Z,980.1
2016-04-05T00:26:00.269Z,980.14
2016-04-05T00:27:00.272Z,980.13
2016-04-05T00:28:00.275Z,980.08
2016-04-05T00:29:00.278Z,980.11
2016-04-05T00:30:00.295Z,980.12
2016-04-05T00:31:00.267Z,980.11
2016-04-05T00:32:00.270Z,980.13
2016-04-05T00:33:00.273Z,980.11
2016-04-05T00:34:00.275Z,980.08
2016-04-05T00:35:00.278Z,980.06
2016-04-05T00:36:00.280Z,980.07
2016-04-05T00:37:00.283Z,980.04
2016-04-05T00:38:00.285Z,980.05
2016-04-05T00:39:00.273Z,980
2016-04-05T00:40:00.276Z,980.03
2016-04-05T00:41:00.279Z,979.96
2016-04-05T00:42:00.282Z,979.98
2016-04-05T00:43:00.284Z,979.96
2016-04-05T00:44:00.287Z,979.96
2016-04-05T00:45:00.304Z,979.9
2016-04-05T00:46:00.292Z,979.91
2016-04-05T00:47:00.279Z,979.89
2016-04-05T00:48:00.281Z,979.85
2016-04-05T00:49:00.284Z,979.88
2016-04-05T00:50:00.286Z,979.91
2016-04-05T00:51:00.289Z,979.9
2016-04-05T00:52:00.308Z,979.91
2016-04-05T00:53:00.294Z,979.92
2016-04-05T00:54:00.298Z,979.89
2016-04-05T00:55:00.300Z,979.96
2016-04-05T00:56:00.287Z,979.97
2016-04-05T00:57:00.290Z,979.93
2016-04-05T00:58:00.292Z,979.92
2016-04-05T00:59:00.295Z,979.91
2016-04-05T01:00:00.297Z,979.86
2016-04-05T01:01:00.300Z,979.89
2016-04-05T01:02:00.288Z,979.88
2016-04-05T01:03:00.306Z,979.91
2016-04-05T01:04:00.309Z,979.92
2016-04-05T01:05:00.297Z,979.93
2016-04-05T01:06:00.299Z,979.97
2016-04-05T01:07:00.302Z,980.01
2016-04-05T01:08:00.304Z,980.03
2016-04-05T01:09:00.307Z,980.02
2016-04-05T01:10:00.310Z,980.05
2016-04-05T01:11:00.312Z,980.07
2016-04-05T01:12:00.299Z,979.98
2016-04-05T01:13:00.301Z,979.99
2016-04-05T01:14:00.304Z,979.98
2016-04-05T01:15:00.307Z,980
2016-04-05T01:16:00.309Z,980
2016-04-05T01:17:00.328Z,979.97
2016-04-05T01:18:00.315Z,980.02
2016-04-05T01:19:00.318Z,980.02
2016-04-05T01:20:00.321Z,979.99
2016-04-05T01:21:00.307Z,979.99
2016-04-05T01:22:00.310Z,979.96
2016-04-05T01:23:00.312Z,979.95
2016-04-05T01:24:00.315Z,980
2016-04-05T01:25:00.318Z,979.95
2016-04-05T01:26:00.305Z,979.94
2016-04-05T01:27:00.308Z,979.96
2016-04-05T01:28:00.326Z,979.91
2016-04-05T01:29:00.313Z,979.97
2016-04-05T01:30:00.316Z,979.92
2016-04-05T01:31:00.334Z,979.98
2016-04-05T01:32:00.322Z,979.99
2016-04-05T01:33:00.309Z,979.98
2016-04-05T01:34:00.327Z,980.01
2016-04-05T01:35:00.314Z,979.99
2016-04-05T01:36:00.316Z,980
2016-04-05T01:37:00.319Z,980.03
2016-04-05T01:38:00.322Z,979.98
2016-04-05T01:39:00.324Z,980.03
2016-04-05T01:40:00.328Z,980.04
2016-04-05T01:41:00.315Z,980.01
2016-04-05T01:42:00.318Z,980.05
2016-04-05T01:43:00.321Z,980.1
2016-04-05T01:44:00.323Z,980.12
2016-04-05T01:45:00.326Z,980.14
2016-04-05T01:46:00.333Z,980.12
2016-04-05T01:47:00.427Z,980.15
2016-04-05T01:48:00.313Z,980.1
2016-04-05T01:49:00.316Z,980.16
2016-04-05T01:50:00.310Z,980.21
2016-04-05T01:51:00.328Z,980.2
2016-04-05T01:52:00.331Z,980.25
2016-04-05T01:53:00.318Z,980.2
2016-04-05T01:54:00.320Z,980.18
2016-04-05T01:55:00.324Z,980.17
2016-04-05T01:56:00.326Z,980.09
2016-04-05T01:57:00.329Z,980.09
2016-04-05T01:58:00.316Z,980.07
2016-04-05T01:59:00.319Z,980.08
2016-04-05T02:00:00.353Z,980.09
2016-04-05T02:01:00.325Z,980.08
2016-04-05T02:02:00.327Z,980.06
2016-04-05T02:03:00.330Z,980.03
2016-04-05T02:04:00.317Z,980.05
2016-04-05T02:05:00.320Z,980.03
2016-04-05T02:06:00.323Z,979.99
2016-04-05T02:07:00.325Z,980
2016-04-05T02:08:00.333Z,979.98
2016-04-05T02:09:00.320Z,979.9
2016-04-05T02:10:00.322Z,979.9
2016-04-05T02:11:00.325Z,979.88
2016-04-05T02:12:00.327Z,979.88
2016-04-05T02:13:00.315Z,979.89
2016-04-05T02:14:00.333Z,979.87
2016-04-05T02:15:00.335Z,979.83
2016-04-05T02:16:00.323Z,979.84
2016-04-05T02:17:00.325Z,979.84
2016-04-05T02:18:00.328Z,979.87
2016-04-05T02:19:00.331Z,979.86
2016-04-05T02:20:00.318Z,979.87
2016-04-05T02:21:00.321Z,979.89
2016-04-05T02:22:00.339Z,979.94
2016-04-05T02:23:00.326Z,979.91
2016-04-05T02:24:00.329Z,979.95
2016-04-05T02:25:00.315Z,979.97
2016-04-05T02:26:00.318Z,979.96
2016-04-05T02:27:00.320Z,979.95
2016-04-05T02:28:00.323Z,979.99
2016-04-05T02:29:00.326Z,980.01
2016-04-05T02:30:00.313Z,979.93
2016-04-05T02:31:00.317Z,979.98
2016-04-05T02:32:00.319Z,979.91
2016-04-05T02:33:00.322Z,979.89
2016-04-05T02:34:00.324Z,979.9
2016-04-05T02:35:00.327Z,979.86
2016-04-05T02:36:00.330Z,979.85
2016-04-05T02:37:00.317Z,979.9
2016-04-05T02:38:00.335Z,979.91
2016-04-05T02:39:00.322Z,979.9
2016-04-05T02:40:00.324Z,979.87
2016-04-05T02:41:00.327Z,979.88
2016-04-05T02:42:00.330Z,979.86
2016-04-05T02:43:00.316Z,979.91
2016-04-05T02:44:00.336Z,979.93
2016-04-05T02:45:00.321Z,979.86
2016-04-05T02:46:00.311Z,979.88
2016-04-05T02:47:00.301Z,979.89
2016-04-05T02:48:00.291Z,979.9
2016-04-05T02:49:00.281Z,979.86
2016-04-05T02:50:00.271Z,979.85
2016-04-05T02:51:00.255Z,979.84
2016-04-05T02:52:00.253Z,979.88
2016-04-05T02:53:00.251Z,979.83
2016-04-05T02:54:00.249Z,979.87
2016-04-05T02:55:00.248Z,979.86
2016-04-05T02:56:00.249Z,979.81
2016-04-05T02:57:00.234Z,979.81
2016-04-05T02:58:00.235Z,979.8
2016-04-05T02:59:00.236Z,979.83
2016-04-05T03:00:00.237Z,979.77
2016-04-05T03:01:00.224Z,979.79
2016-04-05T03:02:00.226Z,979.76
2016-04-05T03:03:00.243Z,979.81
2016-04-05T03:04:00.230Z,979.82
2016-04-05T03:05:00.232Z,979.86
2016-04-05T03:06:00.235Z,979.86
2016-04-05T03:07:00.237Z,979.86
2016-04-05T03:08:00.224Z,979.87
2016-04-05T03:09:00.227Z,979.85
2016-04-05T03:10:00.230Z,979.88
2016-04-05T03:11:00.233Z,979.9
2016-04-05T03:12:00.235Z,979.87
2016-04-05T03:13:00.222Z,979.88
2016-04-05T03:14:00.225Z,979.9
2016-04-05T03:15:00.243Z,979.88
2016-04-05T03:16:00.246Z,979.89
2016-04-05T03:17:00.233Z,979.86
2016-04-05T03:18:00.235Z,979.93
2016-04-05T03:19:00.238Z,979.94
2016-04-05T03:20:00.225Z,979.95
2016-04-05T03:21:00.228Z,979.97
2016-04-05T03:22:00.231Z,979.93
2016-04-05T03:23:00.234Z,979.97
2016-04-05T03:24:00.236Z,979.97
2016-04-05T03:25:00.239Z,979.96
2016-04-05T03:26:00.242Z,979.94
2016-04-05T03:27:00.229Z,979.96
2016-04-05T03:28:00.247Z,979.96
2016-04-05T03:29:00.234Z,980.01
2016-04-05T03:30:00.253Z,980.06
2016-04-05T03:31:00.224Z,980.13
2016-04-05T03:32:00.227Z,980.13
2016-04-05T03:33:00.229Z,980.26
2016-04-05T03:34:00.232Z,980.31
2016-04-05T03:35:00.235Z,980.31
2016-04-05T03:36:00.219Z,980.36
2016-04-05T03:37:00.238Z,980.38
2016-04-05T03:38:00.224Z,980.4
2016-04-05T03:39:00.228Z,980.45
2016-04-05T03:40:00.230Z,980.43
2016-04-05T03:41:00.233Z,980.43
2016-04-05T03:42:00.219Z,980.45
2016-04-05T03:43:00.222Z,980.43
2016-04-05T03:44:00.241Z,980.48
2016-04-05T03:45:00.260Z,980.48
2016-04-05T03:46:00.230Z,980.48
2016-04-05T03:47:00.233Z,980.51
2016-04-05T03:48:00.221Z,980.53
2016-04-05T03:49:00.224Z,980.54
2016-04-05T03:50:00.226Z,980.53
2016-04-05T03:51:00.229Z,980.5
2016-04-05T03:52:00.231Z,980.49
2016-04-05T03:53:00.234Z,980.5
2016-04-05T03:54:00.221Z,980.52
2016-04-05T03:55:00.240Z,980.55
2016-04-05T03:56:00.243Z,980.53
2016-04-05T03:57:00.229Z,980.52
2016-04-05T03:58:00.232Z,980.54
2016-04-05T03:59:00.234Z,980.5
2016-04-05T04:00:00.253Z,980.48
2016-04-05T04:01:00.223Z,980.49
2016-04-05T04:02:00.242Z,980.47
2016-04-05T04:03:00.229Z,980.53
2016-04-05T04:04:00.231Z,980.53
2016-04-05T04:05:00.234Z,980.5
2016-04-05T04:06:00.237Z,980.54
2016-04-05T04:07:00.240Z,980.52
2016-04-05T04:08:00.228Z,980.58
2016-04-05T04:09:00.230Z,980.56
2016-04-05T04:10:00.233Z,980.66
2016-04-05T04:11:00.236Z,980.63
2016-04-05T04:12:00.239Z,980.64
2016-04-05T04:13:00.256Z,980.67
2016-04-05T04:14:00.244Z,980.65
2016-04-05T04:15:00.246Z,980.69
2016-04-05T04:16:00.233Z,980.66
2016-04-05T04:17:00.236Z,980.67
2016-04-05T04:18:00.238Z,980.64
2016-04-05T04:19:00.241Z,980.65
2016-04-05T04:20:00.244Z,980.65
2016-04-05T04:21:00.231Z,980.64
2016-04-05T04:22:00.234Z,980.65
2016-04-05T04:23:00.236Z,980.61
2016-04-05T04:24:00.239Z,980.69
2016-04-05T04:25:00.242Z,980.62
2016-04-05T04:26:00.229Z,980.59
2016-04-05T04:27:00.248Z,980.57
2016-04-05T04:28:00.234Z,980.55
2016-04-05T04:29:00.237Z,980.55
2016-04-05T04:30:00.239Z,980.62
2016-04-05T04:31:00.242Z,980.6
2016-04-05T04:32:00.245Z,980.57
2016-04-05T04:33:00.248Z,980.64
2016-04-05T04:34:00.251Z,980.69
2016-04-05T04:35:00.237Z,980.67
2016-04-05T04:36:00.239Z,980.7
2016-04-05T04:37:00.243Z,980.69
2016-04-05T04:38:00.245Z,980.7
2016-04-05T04:39:00.248Z,980.69
2016-04-05T04:40:00.236Z,980.71
2016-04-05T04:41:00.238Z,980.7
2016-04-05T04:42:00.241Z,980.7
2016-04-05T04:43:00.244Z,980.73
2016-04-05T04:44:00.246Z,980.72
2016-04-05T04:45:00.249Z,980.69
2016-04-05T04:46:00.252Z,980.66
2016-04-05T04:47:00.239Z,980.66
2016-04-05T04:48:00.241Z,980.67
2016-04-05T04:49:00.244Z,980.66
2016-04-05T04:50:00.246Z,980.68
2016-04-05T04:51:00.249Z,980.73
2016-04-05T04:52:00.236Z,980.74
2016-04-05T04:53:00.254Z,980.73
2016-04-05T04:54:00.242Z,980.76
2016-04-05T04:55:00.244Z,980.76
2016-04-05T04:56:00.246Z,980.77
2016-04-05T04:57:00.250Z,980.81
2016-04-05T04:58:00.252Z,980.8
2016-04-05T04:59:00.240Z,980.84
2016-04-05T05:00:00.242Z,980.85
2016-04-05T05:01:00.245Z,980.86
2016-04-05T05:02:00.248Z,980.86
2016-04-05T05:03:00.234Z,980.86
2016-04-05T05:04:00.237Z,980.87
2016-04-05T05:05:00.240Z,980.87
2016-04-05T05:06:00.242Z,980.91
2016-04-05T05:07:00.245Z,980.91
2016-04-05T05:08:00.248Z,980.92
2016-04-05T05:09:00.251Z,980.92
2016-04-05T05:10:00.253Z,980.93
2016-04-05T05:11:00.256Z,980.88
2016-04-05T05:12:00.244Z,980.88
2016-04-05T05:13:00.246Z,980.91
2016-04-05T05:14:00.249Z,980.94
2016-04-05T05:15:00.252Z,980.96
2016-04-05T05:16:00.239Z,981
2016-04-05T05:17:00.241Z,981
2016-04-05T05:18:00.243Z,981.07
2016-04-05T05:19:00.247Z,981.01
2016-04-05T05:20:00.249Z,981.01
2016-04-05T05:21:00.251Z,981.02
2016-04-05T05:22:00.239Z,981.05
2016-04-05T05:23:00.257Z,981.05
2016-04-05T05:24:00.244Z,981.05
2016-04-05T05:25:00.247Z,981.05
2016-04-05T05:26:00.249Z,981.01
2016-04-05T05:27:00.252Z,981.03
2016-04-05T05:28:00.255Z,981.05
2016-04-05T05:29:00.258Z,981.03
2016-04-05T05:30:00.245Z,981.08
2016-04-05T05:31:00.248Z,981.15
2016-04-05T05:32:00.250Z,981.11
2016-04-05T05:33:00.253Z,981.14
2016-04-05T05:34:00.256Z,981.11
2016-04-05T05:35:00.258Z,981.07
2016-04-05T05:36:00.261Z,981.09
2016-04-05T05:37:00.248Z,981.06
2016-04-05T05:38:00.250Z,981.1
2016-04-05T05:39:00.254Z,981.1
2016-04-05T05:40:00.256Z,981.04
2016-04-05T05:41:00.258Z,981.03
2016-04-05T05:42:00.262Z,981.02
2016-04-05T05:43:00.264Z,981.04
2016-04-05T05:44:00.267Z,981.06
2016-04-05T05:45:00.254Z,981.01
2016-04-05T05:46:00.256Z,981.01
2016-04-05T05:47:00.259Z,981
2016-04-05T05:48:00.277Z,981.04
2016-04-05T05:49:00.264Z,981.03
2016-04-05T05:50:00.266Z,981.06
2016-04-05T05:51:00.269Z,981.05
2016-04-05T05:52:00.272Z,981.06
2016-04-05T05:53:00.275Z,981.05
2016-04-05T05:54:00.278Z,981.1
2016-04-05T05:55:00.312Z,981.04
2016-04-05T05:56:00.283Z,981.02
2016-04-05T05:57:00.302Z,981.03
2016-04-05T05:58:00.288Z,981.01
2016-04-05T05:59:00.291Z,981.04
2016-04-05T06:00:00.294Z,981.07
2016-04-05T06:01:00.297Z,981.03
2016-04-05T06:02:00.299Z,981.12
2016-04-05T06:03:00.301Z,981.1
2016-04-05T06:04:00.305Z,981.13
2016-04-05T06:05:00.307Z,981.11
2016-04-05T06:06:00.309Z,981.1
2016-04-05T06:07:00.298Z,981.13
2016-04-05T06:08:00.300Z,981.16
2016-04-05T06:09:00.318Z,981.13
2016-04-05T06:10:00.321Z,981.13
2016-04-05T06:11:00.308Z,981.14
2016-04-05T06:12:00.311Z,981.17
2016-04-05T06:13:00.314Z,981.21
2016-04-05T06:14:00.316Z,981.23
2016-04-05T06:15:00.319Z,981.22
2016-04-05T06:16:00.322Z,981.2
2016-04-05T06:17:00.324Z,981.19
2016-04-05T06:18:00.327Z,981.24
2016-04-05T06:19:00.330Z,981.27
2016-04-05T06:20:00.332Z,981.26
2016-04-05T06:21:00.335Z,981.26
2016-04-05T06:22:00.322Z,981.25
2016-04-05T06:23:00.325Z,981.23
2016-04-05T06:24:00.344Z,981.23
2016-04-05T06:25:00.346Z,981.28
2016-04-05T06:26:00.332Z,981.29
2016-04-05T06:27:00.336Z,981.27
2016-04-05T06:28:00.354Z,981.28
2016-04-05T06:29:00.356Z,981.18
2016-04-05T06:30:00.360Z,981.19
2016-04-05T06:31:00.362Z,981.2
2016-04-05T06:32:00.365Z,981.2
2016-04-05T06:33:00.367Z,981.23
2016-04-05T06:34:00.354Z,981.24
2016-04-05T06:35:00.357Z,981.24
2016-04-05T06:36:00.359Z,981.23
2016-04-05T06:37:00.362Z,981.25
2016-04-05T06:38:00.381Z,981.26
2016-04-05T06:39:00.368Z,981.29
2016-04-05T06:40:00.370Z,981.33
2016-04-05T06:41:00.389Z,981.32
2016-04-05T06:42:00.392Z,981.29
2016-04-05T06:43:00.394Z,981.3
2016-04-05T06:44:00.397Z,981.28
2016-04-05T06:45:00.415Z,981.28
2016-04-05T06:46:00.403Z,981.31
2016-04-05T06:47:00.405Z,981.31
2016-04-05T06:48:00.422Z,981.28
2016-04-05T06:49:00.426Z,981.27
2016-04-05T06:50:00.428Z,981.27
2016-04-05T06:51:00.431Z,981.24
2016-04-05T06:52:00.434Z,981.27
2016-04-05T06:53:00.436Z,981.27
2016-04-05T06:54:00.455Z,981.24
2016-04-05T06:55:00.458Z,981.26
2016-04-05T06:56:00.460Z,981.28
2016-04-05T06:57:00.463Z,981.23
2016-04-05T06:58:00.466Z,981.23
2016-04-05T06:59:00.484Z,981.26
2016-04-05T07:00:00.487Z,981.27
2016-04-05T07:01:00.505Z,981.29
2016-04-05T07:02:00.507Z,981.33
2016-04-05T07:03:00.510Z,981.34
2016-04-05T07:04:00.513Z,981.36
2016-04-05T07:05:00.515Z,981.37
2016-04-05T07:06:00.518Z,981.39
2016-04-05T07:07:00.537Z,981.35
2016-04-05T07:08:00.541Z,981.35
2016-04-05T07:09:00.544Z,981.37
2016-04-05T07:10:00.547Z,981.39
2016-04-05T07:11:00.549Z,981.42
2016-04-05T07:12:00.567Z,981.41
2016-04-05T07:13:00.570Z,981.38
2016-04-05T07:14:00.589Z,981.45
2016-04-05T07:15:00.591Z,981.45
2016-04-05T07:16:00.594Z,981.44
2016-04-05T07:17:00.597Z,981.46
2016-04-05T07:18:00.600Z,981.48
2016-04-05T07:19:00.602Z,981.47
2016-04-05T07:20:00.605Z,981.46
2016-04-05T07:21:00.624Z,981.51
2016-04-05T07:22:00.626Z,981.52
2016-04-05T07:23:00.629Z,981.51
2016-04-05T07:24:00.647Z,981.51
2016-04-05T07:25:00.649Z,981.56
2016-04-05T07:26:00.652Z,981.63
2016-04-05T07:27:00.654Z,981.58
2016-04-05T07:28:00.673Z,981.58
2016-04-05T07:29:00.660Z,981.59
2016-04-05T07:30:00.990Z,981.6
2016-04-05T07:31:00.666Z,981.54
2016-04-05T07:32:00.684Z,981.5
2016-04-05T07:33:00.686Z,981.6
2016-04-05T07:34:00.689Z,981.53
2016-04-05T07:35:00.692Z,981.57
2016-04-05T07:36:00.711Z,981.53
2016-04-05T07:37:00.713Z,981.47
2016-04-05T07:38:00.717Z,981.53
2016-04-05T07:39:00.719Z,981.53
2016-04-05T07:40:00.721Z,981.51
2016-04-05T07:41:00.739Z,981.56
2016-04-05T07:42:00.742Z,981.54
2016-04-05T07:43:00.761Z,981.56
2016-04-05T07:44:00.747Z,981.63
2016-04-05T07:45:00.766Z,981.6
2016-04-05T07:46:00.769Z,981.61
2016-04-05T07:47:00.771Z,981.61
2016-04-05T07:48:00.789Z,981.62
2016-04-05T07:49:00.777Z,981.62
2016-04-05T07:50:00.811Z,981.65
2016-04-05T07:51:00.797Z,981.63
2016-04-05T07:52:00.800Z,981.67
2016-04-05T07:53:00.803Z,981.66
2016-04-05T07:54:00.821Z,981.68
2016-04-05T07:55:00.824Z,981.67
2016-04-05T07:56:00.843Z,981.7
2016-04-05T07:57:00.845Z,981.71
2016-04-05T07:58:00.848Z,981.71
2016-04-05T07:59:00.851Z,981.75
2016-04-05T08:00:00.853Z,981.75
2016-04-05T08:01:00.856Z,981.71
2016-04-05T08:02:00.889Z,981.78
2016-04-05T08:03:00.955Z,981.78
2016-04-05T08:04:00.957Z,981.73
2016-04-05T08:05:00.882Z,981.77
2016-04-05T08:06:00.885Z,981.75
2016-04-05T08:07:00.887Z,981.76
2016-04-05T08:08:00.906Z,981.75
2016-04-05T08:09:00.909Z,981.8
2016-04-05T08:10:00.911Z,981.8
2016-04-05T08:11:00.914Z,981.84
2016-04-05T08:12:00.916Z,981.85
2016-04-05T08:13:00.920Z,981.83
2016-04-05T08:14:00.938Z,981.86
2016-04-05T08:15:00.925Z,981.76
2016-04-05T08:16:00.943Z,981.79
2016-04-05T08:17:00.946Z,981.78
2016-04-05T08:18:00.949Z,981.76
2016-04-05T08:19:00.951Z,981.77
2016-04-05T08:20:00.970Z,981.83
2016-04-05T08:21:00.957Z,981.81
2016-04-05T08:22:00.974Z,981.76
2016-04-05T08:23:00.977Z,981.78
2016-04-05T08:24:00.995Z,981.77
2016-04-05T08:25:00.999Z,981.68
2016-04-05T08:26:01.001Z,981.68
2016-04-05T08:27:01.004Z,981.7
2016-04-05T08:28:01.007Z,981.69
2016-04-05T08:29:01.009Z,981.73
2016-04-05T08:30:01.027Z,981.8
2016-04-05T08:31:01.030Z,981.81
2016-04-05T08:32:01.032Z,981.84
2016-04-05T08:33:01.051Z,981.8
2016-04-05T08:34:01.054Z,981.83
2016-04-05T08:35:01.041Z,981.87
2016-04-05T08:36:01.059Z,981.95
2016-04-05T08:37:01.062Z,981.96
2016-04-05T08:38:01.064Z,981.93
2016-04-05T08:39:01.083Z,982
2016-04-05T08:40:01.086Z,982
2016-04-05T08:41:01.088Z,982.05
2016-04-05T08:42:01.092Z,982.07
2016-04-05T08:43:01.094Z,982.12
2016-04-05T08:44:01.111Z,982.09
2016-04-05T08:45:01.099Z,982.14
2016-04-05T08:46:01.133Z,982.12
2016-04-05T08:47:01.120Z,982.08
2016-04-05T08:48:01.122Z,982.07
2016-04-05T08:49:01.126Z,982.09
2016-04-05T08:50:01.144Z,982.05
2016-04-05T08:51:01.146Z,982.05
2016-04-05T08:52:01.149Z,982.04
2016-04-05T08:53:01.151Z,982.05
2016-04-05T08:54:01.155Z,982.05
2016-04-05T08:55:01.173Z,982.08
2016-04-05T08:56:01.176Z,982.05
2016-04-05T08:57:01.179Z,982.04
2016-04-05T08:58:01.181Z,982.03
2016-04-05T08:59:01.184Z,982.07
2016-04-05T09:00:01.187Z,982.07
2016-04-05T09:01:01.189Z,982.06
2016-04-05T09:02:01.207Z,982.09
2016-04-05T09:03:01.210Z,982.09
2016-04-05T09:04:01.213Z,982.15
2016-04-05T09:05:01.215Z,982.15
2016-04-05T09:06:01.218Z,982.15
2016-04-05T09:07:01.220Z,982.18
2016-04-05T09:08:01.239Z,982.2
2016-04-05T09:09:01.242Z,982.19
2016-04-05T09:10:01.249Z,982.2
2016-04-05T09:11:01.268Z,982.18
2016-04-05T09:12:01.255Z,982.24
2016-04-05T09:13:01.258Z,982.2
2016-04-05T09:14:01.275Z,982.27
2016-04-05T09:15:01.263Z,982.27
2016-04-05T09:16:01.281Z,982.29
2016-04-05T09:17:01.283Z,982.26
2016-04-05T09:18:01.286Z,982.25
2016-04-05T09:19:01.289Z,982.21
2016-04-05T09:20:01.308Z,982.25
2016-04-05T09:21:01.310Z,982.28
2016-04-05T09:22:01.313Z,982.29
2016-04-05T09:23:01.316Z,982.29
2016-04-05T09:24:01.318Z,982.33
2016-04-05T09:25:01.321Z,982.29
2016-04-05T09:26:01.339Z,982.33
2016-04-05T09:27:01.343Z,982.32
2016-04-05T09:28:01.345Z,982.3
2016-04-05T09:29:01.348Z,982.31
2016-04-05T09:30:01.350Z,982.27
2016-04-05T09:31:01.368Z,982.27
2016-04-05T09:32:01.371Z,982.24
2016-04-05T09:33:01.373Z,982.24
2016-04-05T09:34:01.376Z,982.25
2016-04-05T09:35:01.379Z,982.24
2016-04-05T09:36:01.398Z,982.27
2016-04-05T09:37:01.401Z,982.27
2016-04-05T09:38:01.403Z,982.27
2016-04-05T09:39:01.406Z,982.26
2016-04-05T09:40:01.423Z,982.33
2016-04-05T09:41:01.426Z,982.31
2016-04-05T09:42:01.428Z,982.29
2016-04-05T09:43:01.432Z,982.31
2016-04-05T09:44:01.450Z,982.29
2016-04-05T09:45:01.452Z,982.3
2016-04-05T09:46:01.455Z,982.36
2016-04-05T09:47:01.458Z,982.39
2016-04-05T09:48:01.476Z,982.37
2016-04-05T09:49:01.479Z,982.38
2016-04-05T09:50:01.483Z,982.4
2016-04-05T09:51:01.485Z,982.4
2016-04-05T09:52:01.487Z,982.37
2016-04-05T09:53:01.491Z,982.34
2016-04-05T09:54:01.493Z,982.31
2016-04-05T09:55:01.511Z,982.29
2016-04-05T09:56:01.513Z,982.29
2016-04-05T09:57:01.516Z,982.24
2016-04-05T09:58:01.519Z,982.24
2016-04-05T09:59:01.537Z,982.24
2016-04-05T10:00:01.540Z,982.25
2016-04-05T10:01:01.636Z,982.24
2016-04-05T10:02:01.546Z,982.27
2016-04-05T10:03:01.548Z,982.24
2016-04-05T10:04:01.567Z,982.25
2016-04-05T10:05:01.569Z,982.32
2016-04-05T10:06:01.572Z,982.33
2016-04-05T10:07:01.589Z,982.35
2016-04-05T10:08:01.577Z,982.27
2016-04-05T10:09:01.595Z,982.26
2016-04-05T10:10:01.597Z,982.3
2016-04-05T10:11:01.600Z,982.26
2016-04-05T10:12:01.603Z,982.25
2016-04-05T10:13:01.606Z,982.22
2016-04-05T10:14:01.625Z,982.21
2016-04-05T10:15:01.612Z,982.22
2016-04-05T10:16:01.630Z,982.21
2016-04-05T10:17:01.633Z,982.16
2016-04-05T10:18:01.651Z,982.19
2016-04-05T10:19:01.638Z,982.21
2016-04-05T10:20:01.641Z,982.19
2016-04-05T10:21:01.658Z,982.19
2016-04-05T10:22:01.661Z,982.23
2016-04-05T10:23:01.664Z,982.21
2016-04-05T10:24:01.666Z,982.26
2016-04-05T10:25:01.670Z,982.29
2016-04-05T10:26:01.672Z,982.34
2016-04-05T10:27:01.675Z,982.31
2016-04-05T10:28:01.694Z,982.34
2016-04-05T10:29:01.680Z,982.32
2016-04-05T10:30:01.699Z,982.32
2016-04-05T10:31:01.701Z,982.21
2016-04-05T10:32:01.704Z,982.2
2016-04-05T10:33:01.707Z,982.16
2016-04-05T10:34:01.710Z,982.14
2016-04-05T10:35:01.728Z,982.12
2016-04-05T10:36:01.731Z,982.07
2016-04-05T10:37:01.733Z,982.12
2016-04-05T10:38:01.751Z,982.08
2016-04-05T10:39:01.739Z,982.07
2016-04-05T10:40:01.756Z,982.06
2016-04-05T10:41:01.759Z,982.08
2016-04-05T10:42:01.762Z,982.05
2016-04-05T10:43:01.764Z,982.03
2016-04-05T10:44:01.784Z,982.08
2016-04-05T10:45:01.786Z,982.08
2016-04-05T10:46:01.789Z,982.09
2016-04-05T10:47:01.791Z,982.1
2016-04-05T10:48:01.810Z,982.1
2016-04-05T10:49:01.813Z,982.01
2016-04-05T10:50:01.815Z,982.03
2016-04-05T10:51:01.818Z,982.04
2016-04-05T10:52:01.821Z,982.06
2016-04-05T10:53:01.838Z,982.02
2016-04-05T10:54:01.841Z,982
2016-04-05T10:55:01.843Z,981.98
2016-04-05T10:56:01.863Z,981.95
2016-04-05T10:57:01.849Z,981.93
2016-04-05T10:58:01.868Z,981.92
2016-04-05T10:59:01.871Z,981.93
2016-04-05T11:00:01.874Z,981.91
2016-04-05T11:01:01.891Z,981.86
2016-04-05T11:02:01.894Z,981.94
2016-04-05T11:03:01.896Z,981.89
2016-04-05T11:04:01.932Z,981.9
2016-04-05T11:05:01.902Z,981.94
2016-04-05T11:06:01.921Z,982.05
2016-04-05T11:07:01.924Z,981.98
2016-04-05T11:08:01.928Z,981.91
2016-04-05T11:09:01.926Z,981.91
2016-04-05T11:10:01.945Z,981.91
2016-04-05T11:11:01.932Z,981.99
2016-04-05T11:12:01.950Z,981.98
2016-04-05T11:13:01.953Z,982.11
2016-04-05T11:14:01.971Z,982.05
2016-04-05T11:15:01.990Z,982.01
2016-04-05T11:16:01.977Z,982
2016-04-05T11:17:01.979Z,981.95
2016-04-05T11:18:01.982Z,981.91
2016-04-05T11:19:01.985Z,981.93
2016-04-05T11:20:01.987Z,981.99
2016-04-05T11:21:02.006Z,981.99
2016-04-05T11:22:02.009Z,982.03
2016-04-05T11:23:02.012Z,981.98
2016-04-05T11:24:02.030Z,982.03
2016-04-05T11:25:02.047Z,982.03
2016-04-05T11:26:02.035Z,982.1
2016-04-05T11:27:02.178Z,982.07
2016-04-05T11:28:02.072Z,982.04
2016-04-05T11:29:02.059Z,982.01
2016-04-05T11:30:02.044Z,982.01
2016-04-05T11:31:02.064Z,981.96
2016-04-05T11:32:02.067Z,981.95
2016-04-05T11:33:02.069Z,982.04
2016-04-05T11:34:02.088Z,981.94
2016-04-05T11:35:02.091Z,981.98
2016-04-05T11:36:02.109Z,981.95
2016-04-05T11:37:02.096Z,981.97
2016-04-05T11:38:02.098Z,982
2016-04-05T11:39:02.101Z,981.95
2016-04-05T11:40:02.104Z,981.94
2016-04-05T11:41:02.137Z,981.95
2016-04-05T11:42:02.125Z,981.96
2016-04-05T11:43:02.142Z,981.95
2016-04-05T11:44:02.145Z,981.86
2016-04-05T11:45:02.133Z,981.92
2016-04-05T11:46:02.150Z,981.93
2016-04-05T11:47:02.170Z,981.92
2016-04-05T11:48:02.187Z,981.9
2016-04-05T11:49:02.190Z,981.92
2016-04-05T11:50:02.177Z,982
2016-04-05T11:51:02.178Z,982.02
2016-04-05T11:52:02.188Z,982
2016-04-05T11:53:02.173Z,982.04
2016-04-05T11:54:02.181Z,982.08
2016-04-05T11:55:02.160Z,982.11
2016-04-05T11:56:02.185Z,982.14
2016-04-05T11:57:02.180Z,982.13
2016-04-05T11:58:02.180Z,982.1
2016-04-05T11:59:02.179Z,982.14
2016-04-05T12:00:02.178Z,982.15
2016-04-05T12:01:02.179Z,982.13
2016-04-05T12:02:02.178Z,982.09
2016-04-05T12:03:02.196Z,982.1
2016-04-05T12:04:02.198Z,982.11
2016-04-05T12:05:02.183Z,982.08
2016-04-05T12:06:02.200Z,982.07
2016-04-05T12:07:02.203Z,982.04
2016-04-05T12:08:02.220Z,982.03
2016-04-05T12:09:02.222Z,982.02
2016-04-05T12:10:02.224Z,982.03
2016-04-05T12:11:02.226Z,982.05
2016-04-05T12:12:02.245Z,982.04
2016-04-05T12:13:02.232Z,982.05
2016-04-05T12:14:02.234Z,982.04
2016-04-05T12:15:02.237Z,982.09
2016-04-05T12:16:02.240Z,982.06
2016-04-05T12:17:02.258Z,982.08
2016-04-05T12:18:02.261Z,982.11
2016-04-05T12:19:02.264Z,982.05
2016-04-05T12:20:02.283Z,982.18
2016-04-05T12:21:02.285Z,982.12
2016-04-05T12:22:02.288Z,982.13
2016-04-05T12:23:02.290Z,982.18
2016-04-05T12:24:02.293Z,982.19
2016-04-05T12:25:02.311Z,982.19
2016-04-05T12:26:02.314Z,982.21
2016-04-05T12:27:02.301Z,982.17
2016-04-05T12:28:02.319Z,982.2
2016-04-05T12:29:02.321Z,982.14
2016-04-05T12:30:02.325Z,982.2
2016-04-05T12:31:02.327Z,982.21
2016-04-05T12:32:02.330Z,982.16